Time;durP1;ratioP1;P1;durP2;ratioP2;P2;SDS_P1;SDS_P2;PMS_P1;PMS_P2;Temp;Humidity;BMP_temperature;BMP_pressure;BME280_temperature;BME280_humidity;BME280_pressure;Samples;Min_cycle;Max_cycle;Signal;HPM_P1;HPM_P2
2023/07/03 07:51:09;;;;;;;;;;;;;;;10.10;100.00;99463.91;4981675;28;20010;-86
2023/07/03 07:53:34;;;;;;;;;;;;;;;10.01;100.00;99456.38;4983364;28;19929;-85
2023/07/03 07:56:00;;;;;;;;;;;;;;;9.90;100.00;99462.16;4982437;28;19919;-84
2023/07/03 07:58:25;;;;;;;;;;;;;;;9.98;100.00;99457.38;4983209;28;19918;-84
2023/07/03 08:00:52;;;;;;;;;;;;;;;10.04;100.00;99458.03;4983084;28;20327;-89
2023/07/03 08:03:17;;;;;;;;;;;;;;;9.99;100.00;99458.25;4980299;28;19937;-86
2023/07/03 08:05:42;;;;;;;;;;;;;;;10.33;100.00;99462.84;4983905;28;20277;-84
2023/07/03 08:08:07;;;;;;;;;;;;;;;10.85;100.00;99464.81;4982366;28;19968;-86
2023/07/03 08:10:33;;;;;;;;;;;;;;;12.48;100.00;99466.06;4982729;28;19917;-87
2023/07/03 08:12:58;;;;;;;;;;;;;;;11.31;100.00;99466.91;4983147;28;19933;-88
2023/07/03 08:15:24;;;;;;;;;;;;;;;11.04;100.00;99459.44;4982651;28;20038;-87
2023/07/03 08:17:49;;;;;;;;;;;;;;;10.99;100.00;99461.47;4980993;28;19922;-87
2023/07/03 08:20:14;;;;;;;;;;;;;;;10.94;100.00;99463.47;4986676;28;19917;-83
2023/07/03 08:22:40;;;;;;;;;;;;;;;10.97;100.00;99458.03;4985794;28;19922;-82
2023/07/03 08:25:06;;;;;;;;;;;;;;;11.75;100.00;99455.81;4987513;28;19989;-81
2023/07/03 08:27:31;;;;;;;;;;;;;;;10.31;100.00;99463.84;4986454;28;19996;-82
2023/07/03 08:29:56;;;;;;;;;;;;;;;11.31;100.00;99451.00;4986494;28;20420;-85
2023/07/03 08:32:21;;;;;;;;;;;;;;;9.85;100.00;99466.81;4986136;28;19914;-86
2023/07/03 08:34:47;;;;;;;;;;;;;;;9.49;100.00;99467.50;4985317;28;19922;-89
2023/07/03 08:37:13;;;;;;;;;;;;;;;9.30;100.00;99463.94;4986511;28;20004;-86
2023/07/03 08:39:39;;;;;;;;;;;;;;;9.16;100.00;99462.75;4986201;28;20448;-88
2023/07/03 08:42:16;;;;;;;;;;;;;;;8.97;100.00;99461.78;4968425;28;20036;-87
2023/07/03 08:44:42;;;;;;;;;;;;;;;8.97;100.00;99456.50;4985408;28;19945;-86
2023/07/03 08:47:11;;;;;;;;;;;;;;;8.75;100.00;99465.31;4986101;28;19922;-89
2023/07/03 08:49:37;;;;;;;;;;;;;;;8.73;100.00;99475.06;4984763;28;20013;-83
2023/07/03 08:52:03;;;;;;;;;;;;;;;8.71;100.00;99469.84;4985861;28;20041;-83
2023/07/03 08:54:32;;;;;;;;;;;;;;;8.60;100.00;99473.81;4985969;28;19957;-85
2023/07/03 08:56:58;;;;;;;;;;;;;;;8.53;100.00;99474.06;4985978;28;19929;-83
2023/07/03 08:59:24;;;;;;;;;;;;;;;8.49;100.00;99467.19;4985840;28;19925;-84
2023/07/03 09:01:52;;;;;;;;;;;;;;;8.45;100.00;99447.09;4986179;28;19972;-84
2023/07/03 09:04:24;;;;;;;;;;;;;;;8.40;100.00;99451.69;4984232;28;19954;-83
2023/07/03 09:06:50;;;;;;;;;;;;;;;8.37;100.00;99467.66;4986177;28;19918;-84
2023/07/03 09:09:15;;;;;;;;;;;;;;;8.41;100.00;99471.00;4985996;28;19918;-83
2023/07/03 09:11:44;;;;;;;;;;;;;;;8.39;100.00;99472.88;4985693;28;19918;-83
2023/07/03 09:14:13;;;;;;;;;;;;;;;8.29;100.00;99464.44;4985678;28;20009;-83
2023/07/03 09:16:41;;;;;;;;;;;;;;;8.29;100.00;99462.66;4985763;28;19918;-83
2023/07/03 09:19:10;;;;;;;;;;;;;;;8.29;100.00;99467.09;4984178;28;19972;-83
2023/07/03 09:21:36;;;;;;;;;;;;;;;8.31;100.00;99457.31;4984895;28;19922;-83
2023/07/03 09:24:20;;;;;;;;;;;;;;;8.39;100.00;99463.16;4985854;28;19918;-83
2023/07/03 09:26:50;;;;;;;;;;;;;;;8.34;100.00;99467.75;4985544;28;19925;-83
2023/07/03 09:29:15;;;;;;;;;;;;;;;8.22;100.00;99465.59;4967705;28;20045;-84
2023/07/03 09:31:40;;;;;;;;;;;;;;;8.26;100.00;99469.84;4985574;28;19918;-83
2023/07/03 09:34:06;;;;;;;;;;;;;;;8.25;100.00;99470.75;4984350;28;19922;-83
2023/07/03 09:36:35;;;;;;;;;;;;;;;8.23;100.00;99475.22;4975836;28;19918;-85
2023/07/03 09:39:17;;;;;;;;;;;;;;;8.17;100.00;99474.56;4985197;28;19945;-83
2023/07/03 09:41:43;;;;;;;;;;;;;;;8.21;100.00;99477.09;4985475;28;19925;-83
2023/07/03 09:44:12;;;;;;;;;;;;;;;8.13;100.00;99472.94;4967682;28;19922;-82
2023/07/03 09:46:38;;;;;;;;;;;;;;;8.15;100.00;99479.03;4985279;28;19972;-83
2023/07/03 09:49:06;;;;;;;;;;;;;;;8.24;100.00;99482.25;4983352;28;19918;-86
2023/07/03 09:51:33;;;;;;;;;;;;;;;8.17;100.00;99482.47;4984924;28;19922;-83
2023/07/03 09:54:04;;;;;;;;;;;;;;;8.16;100.00;99478.09;4984667;28;20592;-83
2023/07/03 09:56:30;;;;;;;;;;;;;;;8.08;100.00;99480.19;4984533;28;20016;-83
2023/07/03 09:58:59;;;;;;;;;;;;;;;8.05;100.00;99482.06;4983897;28;19919;-86
2023/07/03 10:01:26;;;;;;;;;;;;;;;8.00;100.00;99479.59;4985528;28;19965;-86
2023/07/03 10:04:02;;;;;;;;;;;;;;;8.08;100.00;99479.31;4983421;28;20029;-86
2023/07/03 10:06:28;;;;;;;;;;;;;;;8.09;100.00;99467.81;4984067;28;19932;-82
2023/07/03 10:08:53;;;;;;;;;;;;;;;8.04;100.00;99486.50;4985089;28;20005;-83
2023/07/03 10:11:23;;;;;;;;;;;;;;;8.09;100.00;99486.31;4984862;28;19993;-83
2023/07/03 10:13:51;;;;;;;;;;;;;;;8.01;100.00;99494.53;4985023;28;19922;-88
2023/07/03 10:16:19;;;;;;;;;;;;;;;8.02;100.00;99496.22;4983391;28;19933;-84
2023/07/03 10:18:46;;;;;;;;;;;;;;;8.08;100.00;99492.53;4965773;28;19918;-83
2023/07/03 10:21:14;;;;;;;;;;;;;;;8.10;100.00;99494.16;4984495;28;20342;-83
2023/07/03 10:23:40;;;;;;;;;;;;;;;8.02;100.00;99498.88;4983669;28;19921;-85
2023/07/03 10:26:28;;;;;;;;;;;;;;;7.98;100.00;99498.13;4984655;28;19924;-83
2023/07/03 10:28:58;;;;;;;;;;;;;;;8.08;100.00;99501.28;4983287;28;19921;-83
2023/07/03 10:31:29;;;;;;;;;;;;;;;8.02;100.00;99504.16;4984308;28;19929;-82
2023/07/03 10:33:59;;;;;;;;;;;;;;;8.03;100.00;99497.97;4983136;28;19914;-82
2023/07/03 10:36:26;;;;;;;;;;;;;;;8.10;100.00;99496.81;4984441;28;19922;-82
2023/07/03 10:38:56;;;;;;;;;;;;;;;8.08;100.00;99495.16;4984316;28;19925;-83
2023/07/03 10:42:00;;;;;;;;;;;;;;;8.02;100.00;99496.22;4983004;28;20304;-83
2023/07/03 10:44:27;;;;;;;;;;;;;;;7.92;100.00;99497.50;4924435;29;20067;-81
2023/07/03 10:47:11;;;;;;;;;;;;;;;7.91;100.00;99493.97;4924155;29;19920;-81
2023/07/03 10:49:37;;;;;;;;;;;;;;;8.01;100.00;99497.16;4958253;28;19922;-81
2023/07/03 10:52:15;;;;;;;;;;;;;;;7.89;100.00;99493.19;4966044;28;19976;-82
2023/07/03 10:54:55;;;;;;;;;;;;;;;7.87;100.00;99486.25;4983745;28;19918;-82
2023/07/03 10:57:26;;;;;;;;;;;;;;;7.90;100.00;99489.63;4982806;28;19917;-83
2023/07/03 10:59:53;;;;;;;;;;;;;;;7.76;100.00;99487.50;4981350;28;19944;-84
2023/07/03 11:02:38;;;;;;;;;;;;;;;7.78;100.00;99500.63;4983523;28;19918;-84
2023/07/03 11:05:03;;;;;;;;;;;;;;;7.75;100.00;99496.31;4982974;28;19921;-83
2023/07/03 11:07:35;;;;;;;;;;;;;;;7.75;100.00;99491.03;4983628;28;19918;-82
2023/07/03 11:10:20;;;;;;;;;;;;;;;7.69;100.00;99499.19;4982517;28;20325;-84
2023/07/03 11:13:06;;;;;;;;;;;;;;;7.66;100.00;99488.75;4983654;28;19928;-83
2023/07/03 11:15:43;;;;;;;;;;;;;;;7.68;100.00;99486.91;4965367;28;19918;-83
2023/07/03 11:18:11;;;;;;;;;;;;;;;7.72;100.00;99496.44;4982125;28;20369;-84
2023/07/03 11:20:44;;;;;;;;;;;;;;;7.73;100.00;99484.13;4983284;28;19936;-83
2023/07/03 11:23:09;;;;;;;;;;;;;;;7.73;100.00;99479.69;4983305;28;19995;-83
2023/07/03 11:25:42;;;;;;;;;;;;;;;7.73;100.00;99492.03;4965247;28;20377;-84
2023/07/03 11:28:20;;;;;;;;;;;;;;;7.62;100.00;99493.25;4983738;28;19921;-84
2023/07/03 11:30:45;;;;;;;;;;;;;;;7.60;100.00;99496.88;4983148;28;19962;-84
2023/07/03 11:33:13;;;;;;;;;;;;;;;7.56;100.00;99501.41;4982256;28;20539;-83
2023/07/03 11:35:49;;;;;;;;;;;;;;;7.57;100.00;99496.97;4983023;28;19961;-84
2023/07/03 11:38:18;;;;;;;;;;;;;;;7.56;100.00;99496.13;4982458;28;20440;-84
2023/07/03 11:40:55;;;;;;;;;;;;;;;7.58;100.00;99504.84;4983540;28;19917;-83
2023/07/03 11:43:31;;;;;;;;;;;;;;;7.59;100.00;99505.69;4975889;28;19976;-84
2023/07/03 11:45:57;;;;;;;;;;;;;;;7.58;100.00;99509.25;4982611;28;19922;-82
2023/07/03 11:48:37;;;;;;;;;;;;;;;7.61;100.00;99525.84;4981891;28;19973;-83
2023/07/03 11:51:04;;;;;;;;;;;;;;;7.58;100.00;99512.75;4983047;28;19921;-83
2023/07/03 11:53:32;;;;;;;;;;;;;;;7.60;100.00;99505.63;4981948;28;19969;-82
2023/07/03 11:55:57;;;;;;;;;;;;;;;7.62;100.00;99505.59;4982935;28;20463;-85
2023/07/03 11:58:26;;;;;;;;;;;;;;;7.60;100.00;99504.78;4983088;28;20013;-82
2023/07/03 12:01:10;;;;;;;;;;;;;;;7.64;100.00;99507.25;4982864;28;19918;-82
2023/07/03 12:03:49;;;;;;;;;;;;;;;7.63;100.00;99500.25;4981008;28;19918;-83
2023/07/03 12:06:34;;;;;;;;;;;;;;;7.67;100.00;99493.09;4981882;28;19973;-83
2023/07/03 12:09:21;;;;;;;;;;;;;;;7.69;100.00;99491.28;4957833;28;19964;-83
2023/07/03 12:12:07;;;;;;;;;;;;;;;7.72;100.00;99496.44;4981825;28;20304;-82
2023/07/03 12:17:21;;;;;;;;;;;;;;;7.78;100.00;99487.44;4981704;28;20422;-83
2023/07/03 12:19:47;;;;;;;;;;;;;;;7.64;100.00;99483.53;4980313;28;19918;-83
2023/07/03 12:22:17;;;;;;;;;;;;;;;7.63;100.00;99496.78;4982528;28;20439;-83
2023/07/03 12:24:42;;;;;;;;;;;;;;;7.66;100.00;99491.41;4982572;28;19923;-83
2023/07/03 12:27:08;;;;;;;;;;;;;;;7.70;100.00;99498.25;4982449;28;19918;-83
2023/07/03 12:29:36;;;;;;;;;;;;;;;7.61;100.00;99485.41;4983163;28;19918;-83
2023/07/03 12:32:07;;;;;;;;;;;;;;;7.64;100.00;99482.66;4982231;28;19922;-83
2023/07/03 12:34:34;;;;;;;;;;;;;;;7.61;100.00;99482.75;4981230;28;20049;-83
2023/07/03 12:37:01;;;;;;;;;;;;;;;7.60;100.00;99486.34;4983516;28;19918;-84
2023/07/03 12:39:27;;;;;;;;;;;;;;;7.66;100.00;99480.84;4983163;28;19988;-83
2023/07/03 12:41:52;;;;;;;;;;;;;;;7.66;100.00;99490.50;4982825;28;19962;-83
2023/07/03 12:44:21;;;;;;;;;;;;;;;7.62;100.00;99482.72;4982155;28;19925;-83
2023/07/03 12:46:47;;;;;;;;;;;;;;;7.63;100.00;99478.31;4982714;28;20388;-83
2023/07/03 12:49:13;;;;;;;;;;;;;;;7.66;100.00;99480.84;4980991;28;19926;-83
2023/07/03 12:51:41;;;;;;;;;;;;;;;7.62;100.00;99487.97;4981064;28;19918;-83
2023/07/03 12:54:10;;;;;;;;;;;;;;;7.61;100.00;99488.03;4982164;28;19914;-83
2023/07/03 12:56:37;;;;;;;;;;;;;;;7.63;100.00;99492.34;4982400;28;19925;-83
2023/07/03 12:59:03;;;;;;;;;;;;;;;7.66;100.00;99480.84;4982119;28;20009;-84
2023/07/03 13:01:31;;;;;;;;;;;;;;;7.64;100.00;99466.81;4981499;28;20009;-84
2023/07/03 13:03:56;;;;;;;;;;;;;;;7.71;100.00;99462.22;4981523;28;20285;-83
2023/07/03 13:06:27;;;;;;;;;;;;;;;7.59;100.00;99466.13;4986999;28;19922;-83
2023/07/03 13:08:54;;;;;;;;;;;;;;;7.56;100.00;99464.50;4986658;28;20004;-86
2023/07/03 13:11:35;;;;;;;;;;;;;;;7.59;100.00;99466.13;4984820;28;19918;-82
2023/07/03 13:14:17;;;;;;;;;;;;;;;7.55;100.00;99465.41;4967233;28;19919;-83
2023/07/03 13:16:43;;;;;;;;;;;;;;;7.57;100.00;99465.34;4985449;28;19917;-83
2023/07/03 13:19:09;;;;;;;;;;;;;;;7.57;100.00;99471.47;4984665;28;19918;-87
2023/07/03 13:21:35;;;;;;;;;;;;;;;7.56;100.00;99468.88;4968408;28;20036;-82
2023/07/03 13:24:05;;;;;;;;;;;;;;;7.54;100.00;99454.91;4982719;28;19918;-84
2023/07/03 13:26:31;;;;;;;;;;;;;;;7.54;100.00;99447.84;4985003;28;20293;-83
2023/07/03 13:29:00;;;;;;;;;;;;;;;7.56;100.00;99453.06;4984337;28;19928;-83
2023/07/03 13:31:27;;;;;;;;;;;;;;;7.54;100.00;99449.63;4985667;28;19922;-83
2023/07/03 13:34:07;;;;;;;;;;;;;;;7.59;100.00;99445.91;4983865;28;19918;-83
2023/07/03 13:36:35;;;;;;;;;;;;;;;7.61;100.00;99440.56;4983265;28;20312;-83
2023/07/03 13:39:05;;;;;;;;;;;;;;;7.59;100.00;99447.69;4986067;28;19921;-83
2023/07/03 13:41:31;;;;;;;;;;;;;;;7.61;100.00;99444.09;4985316;28;19917;-83
2023/07/03 13:43:56;;;;;;;;;;;;;;;7.53;100.00;99437.34;4967815;28;19922;-85
2023/07/03 13:46:22;;;;;;;;;;;;;;;7.55;100.00;99432.91;4984196;28;19919;-82
2023/07/03 13:48:47;;;;;;;;;;;;;;;7.52;100.00;99433.88;4984057;28;19933;-85
2023/07/03 13:51:12;;;;;;;;;;;;;;;7.51;100.00;99418.09;4984849;28;19918;-85
2023/07/03 13:53:38;;;;;;;;;;;;;;;7.53;100.00;99427.69;4984928;28;19966;-82
2023/07/03 13:56:03;;;;;;;;;;;;;;;7.55;100.00;99430.28;4984729;28;19925;-84
2023/07/03 13:58:28;;;;;;;;;;;;;;;7.60;100.00;99417.78;4985280;28;19971;-84
2023/07/03 14:00:54;;;;;;;;;;;;;;;7.50;100.00;99422.53;4985356;28;19924;-85
2023/07/03 14:03:19;;;;;;;;;;;;;;;7.64;100.00;99419.38;4983778;28;19918;-87
2023/07/03 14:05:44;;;;;;;;;;;;;;;7.63;100.00;99415.88;4984479;28;19928;-84
2023/07/03 14:08:10;;;;;;;;;;;;;;;7.60;100.00;99407.22;4985050;28;19957;-83
2023/07/03 14:10:35;;;;;;;;;;;;;;;7.63;100.00;99417.66;4984755;28;19922;-83
2023/07/03 14:13:00;;;;;;;;;;;;;;;7.72;100.00;99419.09;4984547;28;19922;-83
2023/07/03 14:15:27;;;;;;;;;;;;;;;7.66;100.00;99416.66;4983841;28;19922;-85
2023/07/03 14:17:52;;;;;;;;;;;;;;;7.74;100.00;99415.50;4983008;28;20340;-83
2023/07/03 14:20:20;;;;;;;;;;;;;;;7.76;100.00;99424.19;4984888;28;19953;-82
2023/07/03 14:22:46;;;;;;;;;;;;;;;7.73;100.00;99424.31;4983319;28;20013;-83
2023/07/03 14:25:12;;;;;;;;;;;;;;;7.72;100.00;99425.25;4984363;28;19965;-83
2023/07/03 14:27:38;;;;;;;;;;;;;;;7.77;100.00;99423.28;4985115;28;20325;-82
2023/07/03 14:30:07;;;;;;;;;;;;;;;7.67;100.00;99423.69;4984470;28;20353;-82
2023/07/03 14:32:32;;;;;;;;;;;;;;;7.73;100.00;99418.19;4967758;28;19918;-83
2023/07/03 14:34:59;;;;;;;;;;;;;;;7.74;100.00;99410.22;4983183;28;20284;-83
2023/07/03 14:37:24;;;;;;;;;;;;;;;7.74;100.00;99412.84;4984478;28;19969;-83
2023/07/03 14:39:50;;;;;;;;;;;;;;;7.70;100.00;99419.16;4974891;28;19961;-82
2023/07/03 14:42:15;;;;;;;;;;;;;;;7.66;100.00;99417.56;4984128;28;19922;-84
2023/07/03 14:44:40;;;;;;;;;;;;;;;7.67;100.00;99413.97;4983913;28;19922;-82
2023/07/03 14:47:05;;;;;;;;;;;;;;;7.65;100.00;99413.19;4967167;28;20325;-83
2023/07/03 14:49:31;;;;;;;;;;;;;;;7.64;100.00;99409.69;4982846;28;19926;-83
2023/07/03 14:51:56;;;;;;;;;;;;;;;7.68;100.00;99422.78;4983603;28;19918;-84
2023/07/03 14:54:25;;;;;;;;;;;;;;;7.71;100.00;99412.97;4983761;28;20352;-83
2023/07/03 14:56:51;;;;;;;;;;;;;;;7.63;100.00;99420.31;4983151;28;20012;-86
2023/07/03 14:59:16;;;;;;;;;;;;;;;7.69;100.00;99406.91;4984242;28;20016;-89
2023/07/03 15:01:41;;;;;;;;;;;;;;;7.63;100.00;99410.59;4982722;28;19930;-85
2023/07/03 15:04:09;;;;;;;;;;;;;;;7.61;100.00;99388.72;4979524;28;20356;-82
2023/07/03 15:06:34;;;;;;;;;;;;;;;7.66;100.00;99392.94;4982216;28;19918;-85
2023/07/03 15:09:00;;;;;;;;;;;;;;;7.61;100.00;99387.84;4983581;28;19926;-84
2023/07/03 15:11:25;;;;;;;;;;;;;;;7.62;100.00;99381.66;4983846;28;20423;-86
2023/07/03 15:13:50;;;;;;;;;;;;;;;7.69;100.00;99375.25;4983246;28;20501;-84
2023/07/03 15:16:15;;;;;;;;;;;;;;;7.64;100.00;99378.06;4983686;28;19928;-88
2023/07/03 15:18:41;;;;;;;;;;;;;;;7.67;100.00;99374.41;4964450;28;20025;-88
2023/07/03 15:21:06;;;;;;;;;;;;;;;7.66;100.00;99375.34;4979774;28;20455;-85
2023/07/03 15:23:32;;;;;;;;;;;;;;;7.71;100.00;99372.56;4982024;28;20000;-83
2023/07/03 15:26:07;;;;;;;;;;;;;;;7.71;100.00;99367.28;4982878;28;19925;-83
2023/07/03 15:28:32;;;;;;;;;;;;;;;7.65;100.00;99365.72;4982442;28;20420;-88
2023/07/03 15:30:57;;;;;;;;;;;;;;;7.68;100.00;99352.41;4982040;28;19922;-83
2023/07/03 15:33:23;;;;;;;;;;;;;;;7.71;100.00;99354.09;4981304;28;19985;-84
2023/07/03 15:35:56;;;;;;;;;;;;;;;7.68;100.00;99352.41;4980261;28;19918;-83
2023/07/03 15:38:21;;;;;;;;;;;;;;;7.77;100.00;99354.72;4980786;28;20284;-83
2023/07/03 15:40:53;;;;;;;;;;;;;;;7.73;100.00;99354.88;4980972;28;19918;-83
2023/07/03 15:43:18;;;;;;;;;;;;;;;7.76;100.00;99350.34;4974493;28;20025;-84
2023/07/03 15:46:00;;;;;;;;;;;;;;;7.76;100.00;99358.25;4982134;28;20041;-89
2023/07/03 15:48:25;;;;;;;;;;;;;;;7.83;100.00;99356.25;4981493;28;19954;-85
2023/07/03 15:50:54;;;;;;;;;;;;;;;7.76;100.00;99358.25;4983018;28;19977;-88
2023/07/03 15:53:19;;;;;;;;;;;;;;;7.77;100.00;99353.84;4983053;28;19976;-87
2023/07/03 15:55:56;;;;;;;;;;;;;;;7.80;100.00;99343.16;4982926;28;19918;-82
2023/07/03 15:58:21;;;;;;;;;;;;;;;7.80;100.00;99335.25;4982619;28;19922;-82
2023/07/03 16:00:53;;;;;;;;;;;;;;;7.86;100.00;99339.44;4979986;28;19926;-83
2023/07/03 16:03:18;;;;;;;;;;;;;;;7.80;100.00;99336.13;4980824;28;19917;-87
2023/07/03 16:05:43;;;;;;;;;;;;;;;7.79;100.00;99338.84;4982969;28;19926;-85
2023/07/03 16:08:09;;;;;;;;;;;;;;;7.76;100.00;99339.78;4982728;28;19929;-83
2023/07/03 16:10:36;;;;;;;;;;;;;;;7.78;100.00;99332.69;4983633;28;19964;-83
2023/07/03 16:13:02;;;;;;;;;;;;;;;7.80;100.00;99322.94;4983034;28;19918;-83
2023/07/03 16:15:30;;;;;;;;;;;;;;;7.84;100.00;99321.03;4982890;28;19974;-85
2023/07/03 16:17:56;;;;;;;;;;;;;;;7.77;100.00;99330.09;4978534;28;19926;-81
2023/07/03 16:20:22;;;;;;;;;;;;;;;7.84;100.00;99323.69;4982750;28;19918;-87
2023/07/03 16:22:48;;;;;;;;;;;;;;;7.79;100.00;99323.84;4982783;28;20011;-83
2023/07/03 16:25:13;;;;;;;;;;;;;;;7.79;100.00;99323.84;4983039;28;19917;-87
2023/07/03 16:27:39;;;;;;;;;;;;;;;7.87;100.00;99326.19;4982972;28;20013;-89
2023/07/03 16:30:04;;;;;;;;;;;;;;;7.83;100.00;99324.59;4981531;28;19918;-83
2023/07/03 16:32:29;;;;;;;;;;;;;;;7.82;100.00;99323.75;4979161;28;19922;-85
2023/07/03 16:34:55;;;;;;;;;;;;;;;7.82;100.00;99321.09;4980105;28;19922;-86
2023/07/03 16:37:20;;;;;;;;;;;;;;;7.81;100.00;99324.66;4980075;28;19922;-84
2023/07/03 16:39:46;;;;;;;;;;;;;;;7.82;100.00;99320.25;4981755;28;20523;-89
2023/07/03 16:42:11;;;;;;;;;;;;;;;7.88;100.00;99327.94;4985278;28;19925;-89
2023/07/03 16:44:37;;;;;;;;;;;;;;;7.86;100.00;99323.63;4986890;28;19930;-84
2023/07/03 16:47:02;;;;;;;;;;;;;;;7.78;100.00;99316.84;4986109;28;20074;-87
2023/07/03 16:49:27;;;;;;;;;;;;;;;7.81;100.00;99314.09;4985733;28;20463;-86
2023/07/03 16:51:53;;;;;;;;;;;;;;;7.72;100.00;99316.22;4986557;28;19925;-87
2023/07/03 16:54:18;;;;;;;;;;;;;;;8.66;100.00;99316.00;4987130;28;19918;-88
2023/07/03 16:56:43;;;;;;;;;;;;;;;8.10;100.00;99312.09;4986208;28;19918;-89
2023/07/03 16:59:08;;;;;;;;;;;;;;;7.95;100.00;99310.06;4982559;28;19933;-90
2023/07/03 17:01:34;;;;;;;;;;;;;;;7.93;100.00;99317.16;4985681;28;19921;-84
2023/07/03 17:04:05;;;;;;;;;;;;;;;7.97;100.00;99316.13;4984633;28;20312;-91
2023/07/03 17:06:34;;;;;;;;;;;;;;;7.94;100.00;99310.97;4969178;28;19924;-84
2023/07/03 17:09:03;;;;;;;;;;;;;;;7.86;100.00;99318.34;4985850;28;20285;-92
2023/07/03 17:11:28;;;;;;;;;;;;;;;7.88;100.00;99312.09;4967847;28;19923;-88
2023/07/03 17:13:54;;;;;;;;;;;;;;;7.85;100.00;99316.63;4986291;28;20388;-86
2023/07/03 17:16:20;;;;;;;;;;;;;;;7.94;100.00;99310.97;4982177;28;19977;-89
2023/07/03 17:18:45;;;;;;;;;;;;;;;7.88;100.00;99308.59;4994563;23;19930;-90
2023/07/03 17:21:11;;;;;;;;;;;;;;;7.84;100.00;99309.63;4978361;28;19922;-88
2023/07/03 17:23:36;;;;;;;;;;;;;;;7.92;100.00;99312.84;4995610;28;19922;-88
2023/07/03 17:26:02;;;;;;;;;;;;;;;7.81;100.00;99314.09;4994317;28;19948;-83
2023/07/03 17:28:28;;;;;;;;;;;;;;;7.92;100.00;99318.09;4994549;28;19918;-82
2023/07/03 17:30:54;;;;;;;;;;;;;;;7.91;100.00;99316.38;4976768;28;19924;-85
2023/07/03 17:33:19;;;;;;;;;;;;;;;7.81;100.00;99310.59;4993083;28;19961;-87
2023/07/03 17:35:45;;;;;;;;;;;;;;;7.82;100.00;99313.19;4994266;28;20000;-89
2023/07/03 17:38:11;;;;;;;;;;;;;;;7.81;100.00;99310.59;4976638;28;19932;-84
2023/07/03 17:40:37;;;;;;;;;;;;;;;7.81;100.00;99306.19;4995194;28;19918;-83
2023/07/03 17:43:02;;;;;;;;;;;;;;;7.89;100.00;99310.31;4991749;28;19926;-84
2023/07/03 17:45:27;;;;;;;;;;;;;;;7.87;100.00;99310.38;4977528;28;19964;-83
2023/07/03 17:47:53;;;;;;;;;;;;;;;7.83;100.00;99311.41;4992921;28;19971;-84
2023/07/03 17:50:19;;;;;;;;;;;;;;;7.80;100.00;99304.47;4994847;28;19949;-84
2023/07/03 17:52:45;;;;;;;;;;;;;;;7.81;100.00;99310.59;4977424;28;19930;-83
2023/07/03 17:55:10;;;;;;;;;;;;;;;7.82;100.00;99313.19;4994061;28;19929;-84
2023/07/03 17:57:36;;;;;;;;;;;;;;;7.84;100.00;99302.56;4992606;28;19948;-85
2023/07/03 18:00:01;;;;;;;;;;;;;;;7.87;100.00;99304.25;4973537;28;20945;-84
2023/07/03 18:02:27;;;;;;;;;;;;;;;7.95;100.00;99307.44;4992325;28;19925;-88
2023/07/03 18:04:52;;;;;;;;;;;;;;;7.80;100.00;99304.47;4991671;28;19933;-86
2023/07/03 18:07:18;;;;;;;;;;;;;;;7.88;100.00;99305.94;4975329;28;19922;-87
2023/07/03 18:09:43;;;;;;;;;;;;;;;7.82;100.00;99302.63;4992985;28;19925;-88
2023/07/03 18:12:08;;;;;;;;;;;;;;;7.82;100.00;99302.63;4992705;28;19929;-88
2023/07/03 18:14:35;;;;;;;;;;;;;;;7.86;100.00;99303.38;4994752;28;19914;-82
2023/07/03 18:17:00;;;;;;;;;;;;;;;7.81;100.00;99298.28;4994154;28;19918;-88
2023/07/03 18:19:25;;;;;;;;;;;;;;;7.80;100.00;99300.97;5009063;28;20381;-88
2023/07/03 18:21:51;;;;;;;;;;;;;;;7.88;100.00;99306.81;5014896;28;20004;-88
2023/07/03 18:24:16;;;;;;;;;;;;;;;7.81;100.00;99305.34;5016626;28;19917;-91
2023/07/03 18:26:41;;;;;;;;;;;;;;;7.84;100.00;99305.22;5019230;28;19922;-88
2023/07/03 18:29:06;;;;;;;;;;;;;;;7.75;100.00;99301.16;5021847;28;19928;-87
2023/07/03 18:31:32;;;;;;;;;;;;;;;7.75;100.00;99302.94;5013618;28;19925;-86
2023/07/03 18:33:57;;;;;;;;;;;;;;;7.79;100.00;99302.75;5020814;28;19915;-84
2023/07/03 18:36:23;;;;;;;;;;;;;;;7.77;100.00;99301.97;5015423;28;19929;-84
2023/07/03 18:38:49;;;;;;;;;;;;;;;7.82;100.00;99307.06;5017898;28;20297;-85
2023/07/03 18:41:15;;;;;;;;;;;;;;;7.84;100.00;99304.38;4995337;28;20320;-87
2023/07/03 18:43:41;;;;;;;;;;;;;;;7.87;100.00;99299.81;5012101;28;20019;-83
2023/07/03 18:46:07;;;;;;;;;;;;;;;7.85;100.00;99308.69;5015489;28;20433;-85
2023/07/03 18:48:33;;;;;;;;;;;;;;;7.88;100.00;99311.22;5022200;28;19924;-85
2023/07/03 18:50:58;;;;;;;;;;;;;;;7.89;100.00;99305.88;5023336;28;19925;-84
2023/07/03 18:53:24;;;;;;;;;;;;;;;7.91;100.00;99306.69;5018761;28;20509;-87
2023/07/03 18:55:49;;;;;;;;;;;;;;;7.87;100.00;99299.81;5013137;28;20339;-83
2023/07/03 18:58:15;;;;;;;;;;;;;;;7.92;100.00;99307.56;5003941;28;19918;-83
2023/07/03 19:00:41;;;;;;;;;;;;;;;7.97;100.00;99313.50;5015909;28;19918;-85
2023/07/03 19:03:06;;;;;;;;;;;;;;;8.04;100.00;99308.84;5010791;28;19921;-84
2023/07/03 19:05:31;;;;;;;;;;;;;;;8.02;100.00;99306.25;5016474;28;19917;-85
2023/07/03 19:07:56;;;;;;;;;;;;;;;8.05;100.00;99302.66;5020822;28;20387;-84
2023/07/03 19:10:22;;;;;;;;;;;;;;;8.07;100.00;99306.06;5020226;28;19921;-83
2023/07/03 19:12:47;;;;;;;;;;;;;;;8.03;100.00;99307.97;5022633;28;19921;-82
2023/07/03 19:15:12;;;;;;;;;;;;;;;7.99;100.00;99309.00;5016520;28;19961;-84
2023/07/03 19:17:38;;;;;;;;;;;;;;;8.03;100.00;99309.78;5013683;28;19922;-83
2023/07/03 19:20:03;;;;;;;;;;;;;;;7.98;100.00;99310.81;5020299;28;19975;-83
2023/07/03 19:22:29;;;;;;;;;;;;;;;7.94;100.00;99310.97;5022380;28;19927;-83
2023/07/03 19:24:55;;;;;;;;;;;;;;;7.96;100.00;99309.13;5022639;28;19924;-84
2023/07/03 19:27:21;;;;;;;;;;;;;;;7.93;100.00;99303.97;5022547;28;20364;-83
2023/07/03 19:29:46;;;;;;;;;;;;;;;7.93;100.00;99309.25;5021593;28;19918;-83
2023/07/03 19:32:13;;;;;;;;;;;;;;;8.03;100.00;99313.25;5022572;28;20523;-88
2023/07/03 19:34:40;;;;;;;;;;;;;;;7.89;100.00;99308.53;5013058;28;19922;-83
2023/07/03 19:37:05;;;;;;;;;;;;;;;7.89;100.00;99319.06;5007029;28;19921;-84
2023/07/03 19:39:31;;;;;;;;;;;;;;;7.89;100.00;99323.50;5009973;28;20325;-84
2023/07/03 19:41:56;;;;;;;;;;;;;;;7.96;100.00;99319.69;5010408;28;20369;-83
2023/07/03 19:44:21;;;;;;;;;;;;;;;7.90;100.00;99327.88;5009437;28;19926;-84
2023/07/03 19:46:47;;;;;;;;;;;;;;;7.91;100.00;99321.66;4993318;28;19932;-85
2023/07/03 19:49:12;;;;;;;;;;;;;;;7.90;100.00;99326.09;5007330;28;19921;-84
2023/07/03 19:51:38;;;;;;;;;;;;;;;7.82;100.00;99338.72;5011950;28;19921;-84
2023/07/03 19:54:05;;;;;;;;;;;;;;;7.81;100.00;99331.72;4992773;28;19930;-85
2023/07/03 19:56:31;;;;;;;;;;;;;;;7.87;100.00;99335.91;5011244;28;19979;-85
2023/07/03 19:58:56;;;;;;;;;;;;;;;7.83;100.00;99340.41;5010754;28;19921;-85
2023/07/03 20:01:21;;;;;;;;;;;;;;;7.78;100.00;99343.22;5012940;28;19922;-87
2023/07/03 20:03:47;;;;;;;;;;;;;;;7.79;100.00;99350.22;5019207;28;19963;-86
2023/07/03 20:06:20;;;;;;;;;;;;;;;7.88;100.00;99342.88;5022038;28;19921;-86
2023/07/03 20:08:49;;;;;;;;;;;;;;;7.77;100.00;99349.44;4995772;28;19932;-85
2023/07/03 20:11:15;;;;;;;;;;;;;;;7.82;100.00;99354.53;5012025;28;19971;-83
2023/07/03 20:13:40;;;;;;;;;;;;;;;7.81;100.00;99352.81;5011316;28;20280;-83
2023/07/03 20:16:06;;;;;;;;;;;;;;;7.78;100.00;99352.94;5019355;28;19928;-83
2023/07/03 20:18:32;;;;;;;;;;;;;;;7.81;100.00;99364.22;5005722;28;19922;-85
2023/07/03 20:20:59;;;;;;;;;;;;;;;7.77;100.00;99362.63;5017518;28;19924;-82
2023/07/03 20:23:24;;;;;;;;;;;;;;;7.84;100.00;99357.97;5014856;28;20395;-84
2023/07/03 20:25:53;;;;;;;;;;;;;;;7.81;100.00;99363.38;5016332;28;20004;-84
2023/07/03 20:28:19;;;;;;;;;;;;;;;7.80;100.00;99367.78;5015564;28;19917;-84
2023/07/03 20:30:47;;;;;;;;;;;;;;;7.81;100.00;99369.50;5019651;28;19927;-83
2023/07/03 20:33:12;;;;;;;;;;;;;;;7.81;100.00;99366.84;5024413;28;19913;-84
2023/07/03 20:35:38;;;;;;;;;;;;;;;7.84;100.00;99367.66;5025586;28;19924;-84
2023/07/03 20:38:03;;;;;;;;;;;;;;;7.86;100.00;99371.09;5020987;28;19928;-83
2023/07/03 20:40:28;;;;;;;;;;;;;;;7.93;100.00;99367.28;5021725;28;19917;-85